createdAt,value
2022-10-01T00:01:24.602Z,5.50
2022-10-01T00:03:53.275Z,5.40
2022-10-01T00:06:22.236Z,5.20
2022-10-01T00:08:51.054Z,5.38
2022-10-01T00:11:25.305Z,5.00
2022-10-01T00:13:54.737Z,5.78
2022-10-01T00:16:26.677Z,5.32
2022-10-01T00:18:54.956Z,4.97
2022-10-01T00:21:31.729Z,5.32
2022-10-01T00:24:04.701Z,4.90
2022-10-01T00:26:37.273Z,5.40
2022-10-01T00:29:12.444Z,4.88
2022-10-01T00:31:40.390Z,5.85
2022-10-01T00:34:07.702Z,5.38
2022-10-01T00:36:35.055Z,5.25
2022-10-01T00:39:03.322Z,5.18
2022-10-01T00:41:34.347Z,5.25
2022-10-01T00:44:28.217Z,4.82
2022-10-01T00:47:03.185Z,5.30
2022-10-01T00:49:35.153Z,5.30
2022-10-01T00:52:13.779Z,5.68
2022-10-01T00:55:01.684Z,5.60
2022-10-01T00:57:30.957Z,5.57
2022-10-01T01:00:02.993Z,5.65
2022-10-01T01:02:30.729Z,5.80
2022-10-01T01:04:58.901Z,5.80
2022-10-01T01:07:27.355Z,5.38
2022-10-01T01:09:55.460Z,5.40
2022-10-01T01:13:04.505Z,5.50
2022-10-01T01:15:39.444Z,5.38
2022-10-01T01:18:17.440Z,5.15
2022-10-01T01:20:59.090Z,4.82
2022-10-01T01:23:42.214Z,4.80
2022-10-01T01:26:50.644Z,4.70
2022-10-01T01:29:30.122Z,5.18
2022-10-01T01:32:11.490Z,4.95
2022-10-01T01:34:47.139Z,4.60
2022-10-01T01:37:21.953Z,4.65
2022-10-01T01:39:54.585Z,4.40
2022-10-01T01:42:37.180Z,4.43
2022-10-01T01:45:10.656Z,4.20
2022-10-01T01:47:42.134Z,4.65
2022-10-01T01:50:13.753Z,4.13
2022-10-01T01:52:41.277Z,4.70
2022-10-01T01:55:10.619Z,4.70
2022-10-01T01:57:43.363Z,4.53
2022-10-01T02:00:14.300Z,4.40
2022-10-01T02:02:51.043Z,3.90
2022-10-01T02:05:25.683Z,4.22
2022-10-01T02:08:19.194Z,4.18
2022-10-01T02:11:09.728Z,4.55
2022-10-01T02:14:11.979Z,4.45
2022-10-01T02:17:07.413Z,4.70
2022-10-01T02:19:58.729Z,3.92
2022-10-01T02:22:52.817Z,4.50
2022-10-01T02:25:27.094Z,4.25
2022-10-01T02:28:06.168Z,4.43
2022-10-01T02:30:36.174Z,4.22
2022-10-01T02:33:07.714Z,5.15
2022-10-01T02:35:37.922Z,4.97
2022-10-01T02:38:09.849Z,4.07
2022-10-01T02:40:44.030Z,4.30
2022-10-01T02:43:32.585Z,4.88
2022-10-01T02:46:28.374Z,4.97
2022-10-01T02:48:57.594Z,4.38
2022-10-01T02:51:47.597Z,4.88
2022-10-01T02:54:32.461Z,4.60
2022-10-01T02:57:18.477Z,4.85
2022-10-01T02:59:46.145Z,4.63
2022-10-01T03:02:13.898Z,5.05
2022-10-01T03:04:41.153Z,4.80
2022-10-01T03:07:08.839Z,4.78
2022-10-01T03:09:38.765Z,4.78
2022-10-01T03:12:06.841Z,4.40
2022-10-01T03:14:34.281Z,4.28
2022-10-01T03:17:03.415Z,4.88
2022-10-01T03:19:30.941Z,4.30
2022-10-01T03:21:58.313Z,4.60
2022-10-01T03:24:25.977Z,4.75
2022-10-01T03:26:53.807Z,4.45
2022-10-01T03:29:20.961Z,4.47
2022-10-01T03:31:48.448Z,4.80
2022-10-01T03:34:15.506Z,4.47
2022-10-01T03:36:42.638Z,4.57
2022-10-01T03:39:10.309Z,4.57
2022-10-01T03:41:37.290Z,4.43
2022-10-01T03:44:04.969Z,4.72
2022-10-01T03:46:32.733Z,5.05
2022-10-01T03:49:00.823Z,4.70
2022-10-01T03:51:29.832Z,4.65
2022-10-01T03:53:58.653Z,4.43
2022-10-01T03:56:26.132Z,4.70
2022-10-01T03:58:53.517Z,4.25
2022-10-01T04:01:21.339Z,4.93
2022-10-01T04:03:50.250Z,5.72
2022-10-01T04:06:17.695Z,5.10
2022-10-01T04:08:44.998Z,5.28
2022-10-01T04:11:12.485Z,4.70
2022-10-01T04:13:39.630Z,4.70
2022-10-01T04:16:07.404Z,5.15
2022-10-01T04:18:35.213Z,4.40
2022-10-01T04:21:04.430Z,4.70
2022-10-01T04:23:31.759Z,4.38
2022-10-01T04:26:02.394Z,4.55
2022-10-01T04:28:31.333Z,4.72
2022-10-01T04:31:18.093Z,4.65
2022-10-01T04:33:45.906Z,4.75
2022-10-01T04:36:13.829Z,4.50
2022-10-01T04:38:40.898Z,4.85
2022-10-01T04:41:09.265Z,4.63
2022-10-01T04:43:37.113Z,3.97
2022-10-01T04:46:04.109Z,4.43
2022-10-01T04:48:31.344Z,4.32
2022-10-01T04:50:58.393Z,4.88
2022-10-01T04:53:25.521Z,4.82
2022-10-01T04:55:52.817Z,4.88
2022-10-01T04:58:20.109Z,5.20
2022-10-01T05:00:49.880Z,5.00
2022-10-01T05:03:18.391Z,5.47
2022-10-01T05:05:45.622Z,5.22
2022-10-01T05:08:12.649Z,5.90
2022-10-01T05:10:39.920Z,5.88
2022-10-01T05:13:07.229Z,5.95
2022-10-01T05:15:35.687Z,6.80
2022-10-01T05:18:03.020Z,6.35
2022-10-01T05:20:30.644Z,6.47
2022-10-01T05:22:57.633Z,7.72
2022-10-01T05:25:24.944Z,7.40
2022-10-01T05:27:52.268Z,9.18
2022-10-01T05:30:24.496Z,7.60
2022-10-01T05:35:25.404Z,7.03
2022-10-01T05:37:54.775Z,6.68
2022-10-01T05:40:24.281Z,6.00
2022-10-01T05:42:51.626Z,6.50
2022-10-01T05:45:20.907Z,6.47
2022-10-01T05:47:49.632Z,6.80
2022-10-01T05:50:17.190Z,6.10
2022-10-01T05:52:53.472Z,6.40
2022-10-01T05:55:22.312Z,6.57
2022-10-01T05:58:10.441Z,6.68
2022-10-01T06:00:40.591Z,7.18
2022-10-01T06:03:08.814Z,7.10
2022-10-01T06:05:36.674Z,7.18
2022-10-01T06:08:09.653Z,7.40
2022-10-01T06:10:37.850Z,8.48
2022-10-01T06:13:06.583Z,8.25
2022-10-01T06:15:38.269Z,7.75
2022-10-01T06:18:10.908Z,7.27
2022-10-01T06:20:40.824Z,7.28
2022-10-01T06:23:12.360Z,7.30
2022-10-01T06:25:42.898Z,7.72
2022-10-01T06:28:14.740Z,8.30
2022-10-01T06:30:43.576Z,8.18
2022-10-01T06:33:15.102Z,14.65
2022-10-01T06:35:49.758Z,9.55
2022-10-01T06:38:21.342Z,9.95
2022-10-01T06:40:58.077Z,8.93
2022-10-01T06:43:29.223Z,11.57
2022-10-01T06:45:57.548Z,9.02
2022-10-01T06:48:24.602Z,12.15
2022-10-01T06:50:53.055Z,11.95
2022-10-01T06:53:20.548Z,13.95
2022-10-01T06:55:49.830Z,14.30
2022-10-01T06:58:21.025Z,11.68
2022-10-01T07:00:49.752Z,12.45
2022-10-01T07:03:21.950Z,15.35
2022-10-01T07:05:50.162Z,16.25
2022-10-01T07:08:18.233Z,14.38
2022-10-01T07:10:45.720Z,16.38
2022-10-01T07:13:17.734Z,14.13
2022-10-01T07:15:46.427Z,13.77
2022-10-01T07:18:14.271Z,15.93
2022-10-01T07:20:42.042Z,13.27
2022-10-01T07:23:13.609Z,13.60
2022-10-01T07:25:42.677Z,14.05
2022-10-01T07:28:18.960Z,13.43
2022-10-01T07:30:59.336Z,12.70
2022-10-01T07:33:27.932Z,10.60
2022-10-01T07:35:55.582Z,10.70
2022-10-01T07:38:22.554Z,9.65
2022-10-01T07:40:54.687Z,10.90
2022-10-01T07:43:22.573Z,10.85
2022-10-01T07:45:52.306Z,9.93
2022-10-01T07:48:19.557Z,9.32
2022-10-01T07:50:47.206Z,8.70
2022-10-01T07:53:14.621Z,8.40
2022-10-01T07:55:42.334Z,8.23
2022-10-01T07:58:10.660Z,8.25
2022-10-01T08:00:39.991Z,8.18
2022-10-01T08:03:07.406Z,8.48
2022-10-01T08:05:36.090Z,7.95
2022-10-01T08:08:08.728Z,8.45
2022-10-01T08:10:38.979Z,8.43
2022-10-01T08:13:18.601Z,8.23
2022-10-01T08:15:50.500Z,9.85
2022-10-01T08:18:17.900Z,10.23
2022-10-01T08:20:44.964Z,11.27
2022-10-01T08:23:16.206Z,10.48
2022-10-01T08:25:45.744Z,12.05
2022-10-01T08:28:13.872Z,9.48
2022-10-01T08:30:42.593Z,10.95
2022-10-01T08:33:14.515Z,10.98
2022-10-01T08:35:43.584Z,11.18
2022-10-01T08:38:14.487Z,13.70
2022-10-01T08:40:50.574Z,11.70
2022-10-01T08:43:36.435Z,13.70
2022-10-01T08:46:15.036Z,15.07
2022-10-01T08:49:27.873Z,13.02
2022-10-01T08:52:22.047Z,13.40
2022-10-01T08:54:59.231Z,12.77
2022-10-01T08:57:37.038Z,11.95
2022-10-01T09:00:13.458Z,11.60
2022-10-01T09:02:43.506Z,11.52
2022-10-01T09:05:36.381Z,12.32
2022-10-01T09:08:22.282Z,11.55
2022-10-01T09:11:00.610Z,12.13
2022-10-01T09:13:58.276Z,12.52
2022-10-01T09:16:43.473Z,11.65
2022-10-01T09:19:44.227Z,11.85
2022-10-01T09:22:28.313Z,12.52
2022-10-01T09:25:25.975Z,13.13
2022-10-01T09:28:10.121Z,10.63
2022-10-01T09:33:20.419Z,12.70
2022-10-01T09:36:21.855Z,11.85
2022-10-01T09:39:24.170Z,12.67
2022-10-01T09:41:52.038Z,13.05
2022-10-01T09:44:28.338Z,12.18
2022-10-01T09:46:55.683Z,12.45
2022-10-01T09:49:43.680Z,12.82
2022-10-01T09:52:27.558Z,12.68
2022-10-01T09:55:42.797Z,13.55
2022-10-01T09:58:17.419Z,13.82
2022-10-01T10:00:48.206Z,13.35
2022-10-01T10:03:24.171Z,11.52
2022-10-01T10:05:52.714Z,12.20
2022-10-01T10:08:35.691Z,10.18
2022-10-01T10:11:08.192Z,11.02
2022-10-01T10:13:51.963Z,10.48
2022-10-01T10:16:45.240Z,11.98
2022-10-01T10:19:28.661Z,14.10
2022-10-01T10:22:19.439Z,11.50
2022-10-01T10:24:47.763Z,10.20
2022-10-01T10:27:29.218Z,10.50
2022-10-01T10:30:17.246Z,8.60
2022-10-01T10:32:47.104Z,8.95
2022-10-01T10:35:44.319Z,9.60
2022-10-01T10:38:20.382Z,8.40
2022-10-01T10:40:48.085Z,8.57
2022-10-01T10:43:22.886Z,9.00
2022-10-01T10:45:56.466Z,8.70
2022-10-01T10:48:35.382Z,8.25
2022-10-01T10:51:05.421Z,8.23
2022-10-01T10:53:46.319Z,7.97
2022-10-01T10:56:24.323Z,13.00
2022-10-01T10:58:53.769Z,10.05
2022-10-01T11:01:29.398Z,11.45
2022-10-01T11:04:00.779Z,14.80
2022-10-01T11:06:28.487Z,8.93
2022-10-01T11:09:07.263Z,11.82
2022-10-01T11:11:54.970Z,10.23
2022-10-01T11:14:56.661Z,8.95
2022-10-01T11:17:55.224Z,10.57
2022-10-01T11:20:41.134Z,8.55
2022-10-01T11:24:02.308Z,8.95
2022-10-01T11:26:55.781Z,8.73
2022-10-01T11:30:09.140Z,8.45
2022-10-01T11:36:04.520Z,8.50
2022-10-01T11:38:54.496Z,11.82
2022-10-01T11:41:38.924Z,11.55
2022-10-01T11:44:26.788Z,8.82
2022-10-01T11:47:03.148Z,8.98
2022-10-01T11:50:04.960Z,7.88
2022-10-01T11:53:07.733Z,8.35
2022-10-01T11:56:21.385Z,8.05
2022-10-01T11:59:13.744Z,8.30
2022-10-01T12:02:03.689Z,7.97
2022-10-01T12:04:41.525Z,8.32
2022-10-01T12:07:26.995Z,8.88
2022-10-01T12:10:38.813Z,7.43
2022-10-01T12:13:34.491Z,7.38
2022-10-01T12:16:41.168Z,7.53
2022-10-01T12:19:27.658Z,12.45
2022-10-01T12:22:25.572Z,8.85
2022-10-01T12:24:54.290Z,8.05
2022-10-01T12:28:09.279Z,9.02
2022-10-01T12:31:16.317Z,7.75
2022-10-01T12:34:00.075Z,8.65
2022-10-01T12:36:52.498Z,7.28
2022-10-01T12:39:52.018Z,6.93
2022-10-01T12:43:13.955Z,6.93
2022-10-01T12:46:07.258Z,6.20
2022-10-01T12:49:00.817Z,6.45
2022-10-01T12:51:46.341Z,6.40
2022-10-01T12:54:58.018Z,6.53
2022-10-01T12:57:49.080Z,6.40
2022-10-01T13:00:26.523Z,6.53
2022-10-01T13:03:42.818Z,6.18
2022-10-01T13:06:43.863Z,6.85
2022-10-01T13:09:23.948Z,7.32
2022-10-01T13:12:31.670Z,6.80
2022-10-01T13:15:00.005Z,6.50
2022-10-01T13:17:48.713Z,6.60
2022-10-01T13:20:51.591Z,5.78
2022-10-01T13:24:04.594Z,5.70
2022-10-01T13:26:40.799Z,5.15
2022-10-01T13:29:35.659Z,5.70
2022-10-01T13:32:27.403Z,5.63
2022-10-01T13:34:56.262Z,5.85
2022-10-01T13:37:40.107Z,5.45
2022-10-01T13:40:31.228Z,5.75
2022-10-01T13:43:19.877Z,5.60
2022-10-01T13:45:52.405Z,5.60
2022-10-01T13:48:29.336Z,6.15
2022-10-01T13:51:10.672Z,5.30
2022-10-01T13:53:52.010Z,6.40
2022-10-01T13:56:35.422Z,5.68
2022-10-01T13:59:21.359Z,5.40
2022-10-01T14:01:48.960Z,5.28
2022-10-01T14:04:21.846Z,5.50
2022-10-01T14:10:00.077Z,5.57
2022-10-01T14:12:54.123Z,5.68
2022-10-01T14:15:54.008Z,5.35
2022-10-01T14:18:33.104Z,5.68
2022-10-01T14:21:17.354Z,5.40
2022-10-01T14:24:05.297Z,5.53
2022-10-01T14:27:05.306Z,5.20
2022-10-01T14:30:11.463Z,5.57
2022-10-01T14:33:16.785Z,6.13
2022-10-01T14:36:15.666Z,6.25
2022-10-01T14:38:43.365Z,5.85
2022-10-01T14:41:24.129Z,6.18
2022-10-01T14:43:51.563Z,6.50
2022-10-01T14:46:19.415Z,8.07
2022-10-01T14:48:58.970Z,7.63
2022-10-01T14:51:31.138Z,8.30
2022-10-01T14:54:00.519Z,8.75
2022-10-01T14:56:29.353Z,8.90
2022-10-01T14:59:04.366Z,8.85
2022-10-01T15:01:31.929Z,7.53
2022-10-01T15:03:59.300Z,7.70
2022-10-01T15:06:29.751Z,7.68
2022-10-01T15:09:14.421Z,7.90
2022-10-01T15:11:44.844Z,8.07
2022-10-01T15:14:22.285Z,7.90
2022-10-01T15:16:50.983Z,8.40
2022-10-01T15:19:22.983Z,9.68
2022-10-01T15:21:57.758Z,9.35
2022-10-01T15:24:49.015Z,10.65
2022-10-01T15:27:21.284Z,10.43
2022-10-01T15:29:56.545Z,10.50
2022-10-01T15:32:27.213Z,10.18
2022-10-01T15:35:04.403Z,10.05
2022-10-01T15:37:35.601Z,9.63
2022-10-01T15:40:07.453Z,9.68
2022-10-01T15:42:35.978Z,9.63
2022-10-01T15:45:09.294Z,9.27
2022-10-01T15:47:58.503Z,8.75
2022-10-01T15:50:36.551Z,7.45
2022-10-01T15:53:15.900Z,7.95
2022-10-01T15:55:50.306Z,7.45
2022-10-01T15:58:24.462Z,7.35
2022-10-01T16:01:11.136Z,7.38
2022-10-01T16:04:01.413Z,7.40
2022-10-01T16:06:41.095Z,7.78
2022-10-01T16:09:18.899Z,8.00
2022-10-01T16:12:21.352Z,7.38
2022-10-01T16:15:03.463Z,7.47
2022-10-01T16:17:36.813Z,8.15
2022-10-01T16:20:15.994Z,8.05
2022-10-01T16:22:43.763Z,7.82
2022-10-01T16:25:22.802Z,8.10
2022-10-01T16:28:05.401Z,7.90
2022-10-01T16:30:34.373Z,8.38
2022-10-01T16:33:05.934Z,8.80
2022-10-01T16:35:37.822Z,8.30
2022-10-01T16:38:09.483Z,9.10
2022-10-01T16:43:16.097Z,9.50
2022-10-01T16:45:44.728Z,9.82
2022-10-01T16:48:17.740Z,10.20
2022-10-01T16:50:46.900Z,10.65
2022-10-01T16:53:18.312Z,10.75
2022-10-01T16:55:47.018Z,10.65
2022-10-01T16:58:14.550Z,10.50
2022-10-01T17:00:42.042Z,10.38
2022-10-01T17:03:17.650Z,10.75
2022-10-01T17:05:46.011Z,10.77
2022-10-01T17:08:14.529Z,11.27
2022-10-01T17:10:46.545Z,10.38
2022-10-01T17:13:15.608Z,11.02
2022-10-01T17:15:43.591Z,11.05
2022-10-01T17:18:10.886Z,9.82
2022-10-01T17:20:39.858Z,10.85
2022-10-01T17:23:09.902Z,10.57
2022-10-01T17:25:38.336Z,10.40
2022-10-01T17:28:11.476Z,11.02
2022-10-01T17:30:48.149Z,10.52
2022-10-01T17:33:19.337Z,10.95
2022-10-01T17:35:55.458Z,10.30
2022-10-01T17:38:23.164Z,10.13
2022-10-01T17:40:56.394Z,10.32
2022-10-01T17:43:24.286Z,10.65
2022-10-01T17:45:57.825Z,9.80
2022-10-01T17:48:26.507Z,9.65
2022-10-01T17:51:06.670Z,9.80
2022-10-01T17:53:42.116Z,9.02
2022-10-01T17:56:15.716Z,8.80
2022-10-01T17:58:45.659Z,8.55
2022-10-01T18:01:19.469Z,9.27
2022-10-01T18:03:47.092Z,9.18
2022-10-01T18:06:16.073Z,8.50
2022-10-01T18:08:58.758Z,9.05
2022-10-01T18:11:28.784Z,9.45
2022-10-01T18:13:56.363Z,9.88
2022-10-01T18:16:24.960Z,9.55
2022-10-01T18:19:52.442Z,9.05
2022-10-01T18:21:46.193Z,9.25
2022-10-01T18:24:15.315Z,9.20
2022-10-01T18:26:42.681Z,8.68
2022-10-01T18:29:23.582Z,8.65
2022-10-01T18:31:56.065Z,8.50
2022-10-01T18:37:07.335Z,8.02
2022-10-01T18:39:57.716Z,7.95
2022-10-01T18:42:59.322Z,7.65
2022-10-01T18:45:54.760Z,7.68
2022-10-01T18:49:10.941Z,7.28
2022-10-01T18:51:50.840Z,6.72
2022-10-01T18:54:42.172Z,7.05
2022-10-01T18:57:50.823Z,7.00
2022-10-01T19:00:23.308Z,6.97
2022-10-01T19:03:32.894Z,5.50
2022-10-01T19:06:36.839Z,5.05
2022-10-01T19:09:27.419Z,4.13
2022-10-01T19:12:09.719Z,3.00
2022-10-01T19:15:03.834Z,2.47
2022-10-01T19:18:15.033Z,2.42
2022-10-01T19:21:10.181Z,2.22
2022-10-01T19:24:26.286Z,1.80
2022-10-01T19:27:09.488Z,1.70
2022-10-01T19:30:03.660Z,1.65
2022-10-01T19:32:42.369Z,1.70
2022-10-01T19:35:39.722Z,1.70
2022-10-01T19:38:34.222Z,1.60
2022-10-01T19:41:23.269Z,1.70
2022-10-01T19:44:09.716Z,1.50
2022-10-01T19:46:47.328Z,1.40
2022-10-01T19:49:38.353Z,1.60
2022-10-01T19:52:18.325Z,1.60
2022-10-01T19:54:58.800Z,1.40
2022-10-01T19:57:29.679Z,1.42
2022-10-01T20:00:12.175Z,1.58
2022-10-01T20:02:54.569Z,1.60
2022-10-01T20:05:50.281Z,1.30
2022-10-01T20:08:45.716Z,1.65
2022-10-01T20:11:25.188Z,1.40
2022-10-01T20:14:07.370Z,1.42
2022-10-01T20:16:43.825Z,1.50
2022-10-01T20:19:27.187Z,1.42
2022-10-01T20:22:19.946Z,1.48
2022-10-01T20:25:45.807Z,1.60
2022-10-01T20:28:59.302Z,1.50
2022-10-01T20:31:39.606Z,1.58
2022-10-01T20:34:36.678Z,1.50
2022-10-01T20:37:46.714Z,1.55
2022-10-01T20:40:28.554Z,1.60
2022-10-01T20:43:28.687Z,1.60
2022-10-01T20:45:58.301Z,1.50
2022-10-01T20:48:35.117Z,1.60
2022-10-01T20:51:12.229Z,1.40
2022-10-01T20:53:59.470Z,1.88
2022-10-01T20:56:50.354Z,1.42
2022-10-01T20:59:42.442Z,1.60
2022-10-01T21:03:15.949Z,1.40
2022-10-01T21:06:10.822Z,1.50
2022-10-01T21:08:57.968Z,1.30
2022-10-01T21:11:41.404Z,1.27
2022-10-01T21:14:27.054Z,1.40
2022-10-01T21:17:01.180Z,1.42
2022-10-01T21:19:54.562Z,1.38
2022-10-01T21:23:06.740Z,1.50
2022-10-01T21:25:42.504Z,1.38
2022-10-01T21:28:44.646Z,1.30
2022-10-01T21:31:32.514Z,1.50
2022-10-01T21:34:20.210Z,1.60
2022-10-01T21:37:13.014Z,1.60
2022-10-01T21:40:29.630Z,1.45
2022-10-01T21:43:20.541Z,1.40
2022-10-01T21:45:55.037Z,1.65
2022-10-01T21:49:17.634Z,1.70
2022-10-01T21:52:13.979Z,1.70
2022-10-01T21:55:11.078Z,1.80
2022-10-01T21:58:21.794Z,1.60
2022-10-01T22:01:18.194Z,1.60
2022-10-01T22:03:57.310Z,1.38
2022-10-01T22:06:45.028Z,1.50
2022-10-01T22:09:33.233Z,1.60
2022-10-01T22:12:03.601Z,1.58
2022-10-01T22:14:31.470Z,1.33
2022-10-01T22:17:17.552Z,1.30
2022-10-01T22:19:50.978Z,1.50
2022-10-01T22:22:54.753Z,1.60
2022-10-01T22:25:22.194Z,1.48
2022-10-01T22:28:00.410Z,1.45
2022-10-01T22:30:35.435Z,1.30
2022-10-01T22:33:12.842Z,1.38
2022-10-01T22:36:15.690Z,1.38
2022-10-01T22:38:54.318Z,1.33
2022-10-01T22:41:46.378Z,1.50
2022-10-01T22:44:22.758Z,1.42
2022-10-01T22:47:18.292Z,1.50
2022-10-01T22:50:05.702Z,1.50
2022-10-01T22:52:45.131Z,1.27
2022-10-01T22:55:56.081Z,1.30
2022-10-01T22:58:59.271Z,1.10
2022-10-01T23:02:02.254Z,1.17
2022-10-01T23:05:03.091Z,1.30
2022-10-01T23:07:37.630Z,1.15
2022-10-01T23:10:21.651Z,1.48
2022-10-01T23:13:12.928Z,1.33
2022-10-01T23:16:13.852Z,1.40
2022-10-01T23:19:07.300Z,1.13
2022-10-01T23:22:17.790Z,1.35
2022-10-01T23:25:13.759Z,1.23
2022-10-01T23:28:32.824Z,1.30
2022-10-01T23:31:12.067Z,1.38
2022-10-01T23:34:07.212Z,1.30
2022-10-01T23:37:16.965Z,1.80
2022-10-01T23:39:58.699Z,1.40
2022-10-01T23:42:52.913Z,1.50
2022-10-01T23:45:51.324Z,1.42
2022-10-01T23:48:48.695Z,1.52
2022-10-01T23:51:27.465Z,1.52
2022-10-01T23:54:22.178Z,1.50
2022-10-01T23:57:02.338Z,1.45
2022-10-01T23:59:59.186Z,1.38
